createdAt,value
2023-03-03T00:01:39.830Z,95.65
2023-03-03T00:04:06.383Z,95.40
2023-03-03T00:06:32.920Z,95.57
2023-03-03T00:08:59.445Z,97.25
2023-03-03T00:11:25.896Z,97.21
2023-03-03T00:13:54.627Z,97.15
2023-03-03T00:16:26.373Z,96.16
2023-03-03T00:18:53.918Z,96.43
2023-03-03T00:21:23.292Z,96.88
2023-03-03T00:23:50.716Z,96.45
2023-03-03T00:26:28.039Z,95.27
2023-03-03T00:28:57.134Z,94.82
2023-03-03T00:31:34.821Z,94.33
2023-03-03T00:34:25.506Z,94.38
2023-03-03T00:36:57.286Z,94.72
2023-03-03T00:39:37.023Z,94.39
2023-03-03T00:42:24.666Z,94.39
2023-03-03T00:45:00.698Z,94.12
2023-03-03T00:47:32.061Z,93.73
2023-03-03T00:50:08.465Z,93.01
2023-03-03T00:52:37.335Z,94.14
2023-03-03T00:55:05.154Z,94.03
2023-03-03T00:57:31.954Z,93.68
2023-03-03T00:59:58.477Z,93.95
2023-03-03T01:02:25.527Z,93.54
2023-03-03T01:04:54.392Z,93.33
2023-03-03T01:07:21.627Z,94.32
2023-03-03T01:09:48.380Z,93.40
2023-03-03T01:12:15.537Z,94.23
2023-03-03T01:14:42.311Z,94.73
2023-03-03T01:17:08.840Z,94.68
2023-03-03T01:19:35.392Z,95.17
2023-03-03T01:22:01.966Z,95.44
2023-03-03T01:24:28.474Z,94.19
2023-03-03T01:26:55.046Z,94.81
2023-03-03T01:29:21.526Z,94.00
2023-03-03T01:31:47.975Z,94.90
2023-03-03T01:34:14.583Z,94.16
2023-03-03T01:36:41.344Z,93.92
2023-03-03T01:39:08.047Z,92.94
2023-03-03T01:41:34.585Z,92.77
2023-03-03T01:44:01.260Z,93.43
2023-03-03T01:46:40.763Z,92.66
2023-03-03T01:49:14.608Z,93.66
2023-03-03T01:51:51.143Z,94.87
2023-03-03T01:54:39.229Z,94.05
2023-03-03T01:57:08.444Z,94.39
2023-03-03T01:59:38.098Z,93.90
2023-03-03T02:02:05.072Z,94.18
2023-03-03T02:04:31.896Z,94.23
2023-03-03T02:07:01.970Z,93.04
2023-03-03T02:09:56.202Z,93.48
2023-03-03T02:12:37.037Z,93.50
2023-03-03T02:15:22.395Z,93.14
2023-03-03T02:17:51.230Z,93.26
2023-03-03T02:20:39.653Z,94.69
2023-03-03T02:23:31.408Z,94.74
2023-03-03T02:25:59.171Z,94.52
2023-03-03T02:28:32.665Z,94.51
2023-03-03T02:31:00.370Z,93.72
2023-03-03T02:33:28.221Z,93.67
2023-03-03T02:35:55.328Z,94.02
2023-03-03T02:38:30.031Z,93.51
2023-03-03T02:41:03.829Z,93.80
2023-03-03T02:43:47.323Z,93.92
2023-03-03T02:46:14.293Z,93.91
2023-03-03T02:48:41.103Z,93.25
2023-03-03T02:51:07.687Z,94.10
2023-03-03T02:53:34.393Z,93.05
2023-03-03T02:56:00.998Z,93.20
2023-03-03T02:58:27.731Z,93.50
2023-03-03T03:00:55.629Z,93.86
2023-03-03T03:03:22.644Z,93.09
2023-03-03T03:05:49.341Z,92.45
2023-03-03T03:08:15.955Z,92.94
2023-03-03T03:10:42.410Z,92.59
2023-03-03T03:13:09.367Z,92.89
2023-03-03T03:15:36.255Z,92.13
2023-03-03T03:18:02.913Z,92.70
2023-03-03T03:20:29.413Z,93.35
2023-03-03T03:22:56.009Z,93.37
2023-03-03T03:25:22.520Z,92.85
2023-03-03T03:27:49.148Z,92.46
2023-03-03T03:30:16.104Z,92.42
2023-03-03T03:32:42.612Z,92.41
2023-03-03T03:35:09.329Z,93.18
2023-03-03T03:37:35.763Z,93.65
2023-03-03T03:40:02.172Z,92.84
2023-03-03T03:42:28.631Z,92.29
2023-03-03T03:44:55.064Z,92.12
2023-03-03T03:47:21.927Z,93.05
2023-03-03T03:49:48.493Z,92.81
2023-03-03T03:52:15.367Z,93.23
2023-03-03T03:54:41.958Z,93.34
2023-03-03T03:57:08.718Z,92.74
2023-03-03T03:59:35.265Z,92.21
2023-03-03T04:02:01.912Z,91.65
2023-03-03T04:04:28.600Z,92.49
2023-03-03T04:06:55.212Z,92.32
2023-03-03T04:09:21.657Z,92.56
2023-03-03T04:11:48.295Z,92.80
2023-03-03T04:14:14.792Z,91.83
2023-03-03T04:16:41.302Z,91.64
2023-03-03T04:19:07.880Z,91.89
2023-03-03T04:21:34.383Z,92.16
2023-03-03T04:24:00.902Z,91.57
2023-03-03T04:26:27.440Z,92.17
2023-03-03T04:28:53.948Z,91.50
2023-03-03T04:31:20.734Z,91.64
2023-03-03T04:33:47.298Z,91.89
2023-03-03T04:36:13.927Z,92.08
2023-03-03T04:38:40.525Z,91.88
2023-03-03T04:41:07.268Z,91.87
2023-03-03T04:43:33.989Z,91.61
2023-03-03T04:46:00.429Z,91.41
2023-03-03T04:48:27.025Z,92.64
2023-03-03T04:50:53.505Z,91.97
2023-03-03T04:53:19.970Z,92.71
2023-03-03T04:55:46.632Z,92.51
2023-03-03T04:58:13.197Z,92.14
2023-03-03T05:00:40.142Z,92.54
2023-03-03T05:03:07.081Z,91.97
2023-03-03T05:05:33.536Z,91.87
2023-03-03T05:08:00.037Z,92.40
2023-03-03T05:10:26.817Z,92.07
2023-03-03T05:12:53.337Z,92.25
2023-03-03T05:15:20.293Z,92.20
2023-03-03T05:17:46.807Z,92.42
2023-03-03T05:20:13.903Z,92.17
2023-03-03T05:22:40.622Z,92.80
2023-03-03T05:25:07.700Z,93.13
2023-03-03T05:27:34.410Z,92.93
2023-03-03T05:30:00.852Z,92.27
2023-03-03T05:32:27.378Z,91.90
2023-03-03T05:34:54.066Z,91.88
2023-03-03T05:37:20.810Z,92.70
2023-03-03T05:39:47.370Z,92.39
2023-03-03T05:42:14.572Z,91.90
2023-03-03T05:44:41.358Z,91.78
2023-03-03T05:47:07.951Z,92.56
2023-03-03T05:49:34.610Z,91.88
2023-03-03T05:52:01.557Z,92.49
2023-03-03T05:54:28.172Z,93.34
2023-03-03T05:56:54.619Z,94.16
2023-03-03T05:59:21.396Z,93.68
2023-03-03T06:01:47.922Z,93.85
2023-03-03T06:04:14.485Z,93.95
2023-03-03T06:06:41.022Z,93.40
2023-03-03T06:09:07.596Z,93.86
2023-03-03T06:11:34.077Z,94.39
2023-03-03T06:14:00.576Z,94.33
2023-03-03T06:16:27.162Z,93.76
2023-03-03T06:18:53.627Z,93.34
2023-03-03T06:21:20.069Z,92.80
2023-03-03T06:23:47.073Z,92.92
2023-03-03T06:26:13.725Z,93.35
2023-03-03T06:28:40.261Z,92.95
2023-03-03T06:31:06.804Z,92.77
2023-03-03T06:33:33.279Z,92.23
2023-03-03T06:35:59.963Z,92.57
2023-03-03T06:38:26.770Z,92.23
2023-03-03T06:40:53.493Z,92.50
2023-03-03T06:43:20.514Z,92.30
2023-03-03T06:45:47.123Z,92.89
2023-03-03T06:48:13.843Z,93.04
2023-03-03T06:50:40.644Z,93.69
2023-03-03T06:53:14.147Z,93.29
2023-03-03T06:55:44.326Z,93.66
2023-03-03T06:58:21.512Z,93.82
2023-03-03T07:00:57.487Z,93.06
2023-03-03T07:03:25.895Z,92.80
2023-03-03T07:05:53.628Z,92.67
2023-03-03T07:08:22.500Z,92.43
2023-03-03T07:10:50.283Z,92.66
2023-03-03T07:13:27.872Z,92.54
2023-03-03T07:15:56.355Z,92.56
2023-03-03T07:18:35.122Z,91.46
2023-03-03T07:21:17.380Z,91.53
2023-03-03T07:23:45.648Z,91.38
2023-03-03T07:26:14.222Z,90.96
2023-03-03T07:28:43.134Z,91.04
2023-03-03T07:31:36.964Z,90.69
2023-03-03T07:34:15.206Z,90.93
2023-03-03T07:36:41.823Z,90.87
2023-03-03T07:39:33.218Z,90.83
2023-03-03T07:42:09.575Z,91.43
2023-03-03T07:44:37.234Z,91.19
2023-03-03T07:47:36.353Z,91.58
2023-03-03T07:50:19.024Z,90.91
2023-03-03T07:53:14.761Z,90.42
2023-03-03T07:55:41.513Z,90.70
2023-03-03T07:58:11.238Z,89.88
2023-03-03T08:01:15.452Z,90.25
2023-03-03T08:03:44.848Z,90.09
2023-03-03T08:06:42.825Z,89.62
2023-03-03T08:09:12.335Z,88.53
2023-03-03T08:12:08.065Z,88.82
2023-03-03T08:14:36.306Z,87.99
2023-03-03T08:17:07.903Z,88.61
2023-03-03T08:19:34.433Z,88.26
2023-03-03T08:22:07.112Z,88.47
2023-03-03T08:24:33.552Z,88.24
2023-03-03T08:27:00.113Z,88.16
2023-03-03T08:29:26.486Z,87.13
2023-03-03T08:31:53.031Z,87.60
2023-03-03T08:34:20.649Z,87.59
2023-03-03T08:36:47.489Z,88.69
2023-03-03T08:39:13.996Z,87.51
2023-03-03T08:41:43.741Z,88.15
2023-03-03T08:44:11.120Z,87.13
2023-03-03T08:46:37.917Z,87.76
2023-03-03T08:49:04.472Z,88.09
2023-03-03T08:51:31.082Z,87.98
2023-03-03T08:53:57.559Z,87.30
2023-03-03T08:56:24.046Z,88.11
2023-03-03T08:59:01.878Z,86.96
2023-03-03T09:01:29.917Z,86.70
2023-03-03T09:03:56.481Z,86.51
2023-03-03T09:06:23.462Z,86.91
2023-03-03T09:08:50.338Z,87.02
2023-03-03T09:11:24.231Z,87.49
2023-03-03T09:13:53.305Z,87.67
2023-03-03T09:16:22.212Z,87.33
2023-03-03T09:18:48.753Z,87.00
2023-03-03T09:21:27.090Z,86.95
2023-03-03T09:23:58.516Z,87.12
2023-03-03T09:26:45.075Z,86.08
2023-03-03T09:29:14.416Z,85.52
2023-03-03T09:31:46.544Z,86.16
2023-03-03T09:34:21.580Z,86.40
2023-03-03T09:36:49.521Z,86.59
2023-03-03T09:39:21.187Z,87.47
2023-03-03T09:42:28.699Z,87.26
2023-03-03T09:45:17.976Z,86.98
2023-03-03T09:48:08.882Z,86.46
2023-03-03T09:50:49.383Z,86.95
2023-03-03T09:53:25.044Z,86.96
2023-03-03T09:56:08.352Z,86.30
2023-03-03T09:58:45.723Z,86.04
2023-03-03T10:01:24.496Z,85.79
2023-03-03T10:04:00.660Z,86.29
2023-03-03T10:06:45.796Z,86.09
2023-03-03T10:09:55.350Z,85.41
2023-03-03T10:12:46.467Z,85.18
2023-03-03T10:15:26.162Z,86.00
2023-03-03T10:17:54.282Z,86.21
2023-03-03T10:20:59.584Z,85.74
2023-03-03T10:23:42.432Z,85.58
2023-03-03T10:26:17.504Z,85.24
2023-03-03T10:28:58.816Z,84.57
2023-03-03T10:31:54.096Z,84.95
2023-03-03T10:34:39.348Z,84.16
2023-03-03T10:37:14.005Z,84.18
2023-03-03T10:39:54.978Z,84.79
2023-03-03T10:43:00.405Z,84.16
2023-03-03T10:46:04.015Z,83.46
2023-03-03T10:48:45.832Z,83.96
2023-03-03T10:51:25.512Z,83.52
2023-03-03T10:54:38.591Z,83.09
2023-03-03T10:57:42.855Z,83.09
2023-03-03T11:00:31.962Z,82.72
2023-03-03T11:03:36.623Z,81.64
2023-03-03T11:06:20.638Z,81.88
2023-03-03T11:08:57.585Z,80.93
2023-03-03T11:11:46.979Z,81.17
2023-03-03T11:14:38.814Z,81.00
2023-03-03T11:17:19.349Z,81.01
2023-03-03T11:20:24.303Z,81.21
2023-03-03T11:23:08.198Z,81.08
2023-03-03T11:25:56.636Z,81.51
2023-03-03T11:28:35.596Z,81.01
2023-03-03T11:31:05.121Z,81.35
2023-03-03T11:33:40.667Z,81.37
2023-03-03T11:36:13.219Z,81.80
2023-03-03T11:38:59.174Z,80.36
2023-03-03T11:41:40.861Z,80.74
2023-03-03T11:44:29.269Z,80.26
2023-03-03T11:47:32.069Z,80.82
2023-03-03T11:50:32.373Z,80.45
2023-03-03T11:53:49.660Z,80.29
2023-03-03T11:56:23.417Z,80.13
2023-03-03T11:58:58.873Z,79.57
2023-03-03T12:01:47.035Z,78.11
2023-03-03T12:04:16.299Z,78.50
2023-03-03T12:07:12.923Z,78.92
2023-03-03T12:10:09.043Z,78.28
2023-03-03T12:12:44.351Z,77.14
2023-03-03T12:15:28.016Z,76.66
2023-03-03T12:18:03.952Z,78.38
2023-03-03T12:20:48.849Z,77.66
2023-03-03T12:23:18.540Z,77.60
2023-03-03T12:25:58.762Z,77.68
2023-03-03T12:28:28.526Z,77.25
2023-03-03T12:31:14.097Z,76.96
2023-03-03T12:33:53.191Z,77.02
2023-03-03T12:36:27.778Z,77.50
2023-03-03T12:39:05.835Z,76.50
2023-03-03T12:41:53.723Z,76.24
2023-03-03T12:44:37.493Z,76.14
2023-03-03T12:47:11.402Z,76.11
2023-03-03T12:50:08.085Z,76.05
2023-03-03T12:52:57.507Z,75.42
2023-03-03T12:55:43.815Z,75.12
2023-03-03T12:58:45.834Z,76.06
2023-03-03T13:01:22.681Z,76.95
2023-03-03T13:04:10.611Z,76.65
2023-03-03T13:07:12.723Z,75.92
2023-03-03T13:10:14.426Z,77.52
2023-03-03T13:13:04.110Z,77.42
2023-03-03T13:15:55.263Z,77.63
2023-03-03T13:18:28.560Z,77.52
2023-03-03T13:21:11.437Z,77.44
2023-03-03T13:23:49.210Z,77.67
2023-03-03T13:26:45.141Z,77.29
2023-03-03T13:29:26.869Z,77.19
2023-03-03T13:31:59.978Z,77.17
2023-03-03T13:34:32.587Z,77.45
2023-03-03T13:37:06.643Z,78.04
2023-03-03T13:39:38.572Z,76.02
2023-03-03T13:42:16.164Z,75.10
2023-03-03T13:44:43.786Z,74.76
2023-03-03T13:47:25.436Z,75.49
2023-03-03T13:50:14.030Z,75.62
2023-03-03T13:52:59.692Z,74.97
2023-03-03T13:55:46.666Z,73.68
2023-03-03T13:58:16.258Z,73.88
2023-03-03T14:01:05.030Z,73.75
2023-03-03T14:03:43.794Z,74.66
2023-03-03T14:06:15.890Z,75.40
2023-03-03T14:08:56.008Z,75.45
2023-03-03T14:11:49.039Z,75.25
2023-03-03T14:14:18.373Z,74.43
2023-03-03T14:16:54.015Z,73.82
2023-03-03T14:19:23.262Z,73.69
2023-03-03T14:21:58.131Z,73.98
2023-03-03T14:24:26.601Z,73.61
2023-03-03T14:26:55.486Z,74.16
2023-03-03T14:29:35.176Z,73.27
2023-03-03T14:32:03.970Z,74.57
2023-03-03T14:34:38.778Z,74.30
2023-03-03T14:37:29.462Z,74.63
2023-03-03T14:40:22.440Z,74.15
2023-03-03T14:42:57.032Z,73.39
2023-03-03T14:45:40.591Z,73.25
2023-03-03T14:48:18.348Z,73.72
2023-03-03T14:50:52.007Z,74.12
2023-03-03T14:53:18.570Z,73.90
2023-03-03T14:55:50.310Z,74.37
2023-03-03T14:58:29.136Z,74.61
2023-03-03T15:01:33.223Z,74.53
2023-03-03T15:04:25.228Z,74.33
2023-03-03T15:06:53.854Z,73.79
2023-03-03T15:09:38.958Z,74.02
2023-03-03T15:12:19.796Z,73.96
2023-03-03T15:14:49.122Z,73.55
2023-03-03T15:17:33.604Z,74.76
2023-03-03T15:20:23.235Z,75.60
2023-03-03T15:23:32.030Z,74.69
2023-03-03T15:26:06.769Z,75.04
2023-03-03T15:28:55.211Z,74.65
2023-03-03T15:31:30.709Z,75.04
2023-03-03T15:34:16.006Z,75.08
2023-03-03T15:36:49.217Z,74.98
2023-03-03T15:40:17.869Z,75.20
2023-03-03T15:42:58.479Z,74.35
2023-03-03T15:45:43.658Z,74.30
2023-03-03T15:48:17.392Z,75.62
2023-03-03T15:50:57.095Z,75.45
2023-03-03T15:53:35.905Z,75.09
2023-03-03T15:56:21.363Z,75.17
2023-03-03T15:59:06.808Z,75.04
2023-03-03T16:01:34.990Z,75.79
2023-03-03T16:04:20.181Z,75.44
2023-03-03T16:06:58.930Z,75.88
2023-03-03T16:09:32.246Z,75.89
2023-03-03T16:12:10.237Z,75.66
2023-03-03T16:14:55.464Z,75.70
2023-03-03T16:17:40.439Z,76.64
2023-03-03T16:20:29.891Z,76.81
2023-03-03T16:23:23.343Z,77.36
2023-03-03T16:25:58.976Z,76.93
2023-03-03T16:28:47.437Z,77.15
2023-03-03T16:31:22.494Z,78.26
2023-03-03T16:33:55.278Z,78.03
2023-03-03T16:36:21.664Z,79.75
2023-03-03T16:38:53.409Z,79.15
2023-03-03T16:41:59.807Z,79.11
2023-03-03T16:44:38.430Z,79.39
2023-03-03T16:47:23.863Z,79.76
2023-03-03T16:49:55.818Z,79.50
2023-03-03T16:52:48.283Z,79.29
2023-03-03T16:56:13.422Z,78.39
2023-03-03T16:58:55.038Z,78.58
2023-03-03T17:01:43.990Z,79.33
2023-03-03T17:04:44.980Z,79.58
2023-03-03T17:07:39.427Z,80.11
2023-03-03T17:10:17.679Z,79.49
2023-03-03T17:13:16.486Z,79.35
2023-03-03T17:15:46.004Z,80.32
2023-03-03T17:18:14.511Z,80.54
2023-03-03T17:20:49.161Z,80.84
2023-03-03T17:23:21.657Z,81.13
2023-03-03T17:26:06.718Z,81.04
2023-03-03T17:28:55.657Z,80.95
2023-03-03T17:31:31.282Z,80.41
2023-03-03T17:34:10.260Z,80.47
2023-03-03T17:36:58.419Z,80.10
2023-03-03T17:39:50.244Z,80.54
2023-03-03T17:42:37.020Z,80.82
2023-03-03T17:45:14.922Z,80.71
2023-03-03T17:47:56.794Z,80.73
2023-03-03T17:50:48.215Z,80.68
2023-03-03T17:53:23.917Z,81.07
2023-03-03T17:55:56.409Z,81.46
2023-03-03T17:58:29.072Z,81.25
2023-03-03T18:01:03.197Z,81.71
2023-03-03T18:03:52.524Z,81.37
2023-03-03T18:06:43.610Z,81.45
2023-03-03T18:09:17.368Z,81.96
2023-03-03T18:12:05.204Z,81.84
2023-03-03T18:14:53.545Z,81.75
2023-03-03T18:17:39.207Z,81.66
2023-03-03T18:20:28.498Z,82.60
2023-03-03T18:22:55.396Z,82.54
2023-03-03T18:25:27.070Z,82.04
2023-03-03T18:27:59.546Z,82.19
2023-03-03T18:30:33.457Z,82.81
2023-03-03T18:33:03.332Z,83.16
2023-03-03T18:35:32.820Z,82.75
2023-03-03T18:38:17.788Z,82.58
2023-03-03T18:41:04.466Z,82.56
2023-03-03T18:43:43.154Z,82.52
2023-03-03T18:46:36.046Z,82.42
2023-03-03T18:49:10.182Z,82.68
2023-03-03T18:51:39.813Z,82.42
2023-03-03T18:54:30.917Z,83.02
2023-03-03T18:56:57.884Z,82.85
2023-03-03T18:59:30.513Z,83.22
2023-03-03T19:02:18.183Z,82.67
2023-03-03T19:05:08.766Z,83.64
2023-03-03T19:07:59.788Z,83.65
2023-03-03T19:10:49.807Z,83.12
2023-03-03T19:13:34.717Z,83.28
2023-03-03T19:16:06.436Z,82.76
2023-03-03T19:18:56.050Z,83.29
2023-03-03T19:21:28.022Z,83.65
2023-03-03T19:24:00.511Z,83.10
2023-03-03T19:26:30.258Z,82.80
2023-03-03T19:29:09.219Z,82.44
2023-03-03T19:31:49.788Z,82.53
2023-03-03T19:34:19.247Z,82.87
2023-03-03T19:37:28.403Z,82.99
2023-03-03T19:40:18.513Z,82.51
2023-03-03T19:43:36.446Z,83.06
2023-03-03T19:46:43.642Z,83.07
2023-03-03T19:49:41.275Z,83.05
2023-03-03T19:52:25.327Z,83.16
2023-03-03T19:55:04.513Z,82.90
2023-03-03T19:57:35.896Z,82.88
2023-03-03T20:00:20.687Z,82.54
2023-03-03T20:03:05.977Z,82.82
2023-03-03T20:05:35.046Z,83.01
2023-03-03T20:08:17.498Z,82.73
2023-03-03T20:10:57.670Z,82.22
2023-03-03T20:13:37.499Z,82.76
2023-03-03T20:16:30.234Z,82.55
2023-03-03T20:19:18.583Z,83.03
2023-03-03T20:21:48.166Z,82.59
2023-03-03T20:24:47.335Z,82.33
2023-03-03T20:27:20.898Z,83.18
2023-03-03T20:33:15.887Z,83.25
2023-03-03T20:36:17.816Z,83.27
2023-03-03T20:39:04.707Z,83.05
2023-03-03T20:42:09.183Z,82.92
2023-03-03T20:45:35.258Z,83.21
2023-03-03T20:48:50.160Z,82.93
2023-03-03T20:51:43.172Z,82.81
2023-03-03T20:54:59.792Z,83.37
2023-03-03T20:57:51.983Z,83.00
2023-03-03T21:00:32.027Z,82.87
2023-03-03T21:03:18.453Z,82.91
2023-03-03T21:06:01.038Z,83.35
2023-03-03T21:08:41.970Z,82.91
2023-03-03T21:11:12.785Z,83.63
2023-03-03T21:13:42.949Z,83.21
2023-03-03T21:16:21.929Z,83.15
2023-03-03T21:18:59.926Z,83.29
2023-03-03T21:21:29.216Z,83.69
2023-03-03T21:24:03.796Z,83.41
2023-03-03T21:26:47.708Z,83.26
2023-03-03T21:29:36.856Z,83.08
2023-03-03T21:32:09.713Z,83.30
2023-03-03T21:34:39.448Z,84.00
2023-03-03T21:37:11.566Z,83.30
2023-03-03T21:39:40.951Z,83.03
2023-03-03T21:42:12.354Z,83.12
2023-03-03T21:44:44.638Z,83.14
2023-03-03T21:47:14.757Z,82.44
2023-03-03T21:49:43.047Z,82.92
2023-03-03T21:52:10.758Z,82.81
2023-03-03T21:54:37.361Z,83.28
2023-03-03T21:57:04.250Z,83.09
2023-03-03T21:59:30.875Z,82.93
2023-03-03T22:01:57.534Z,82.70
2023-03-03T22:04:24.208Z,83.05
2023-03-03T22:06:52.724Z,83.16
2023-03-03T22:09:19.552Z,83.12
2023-03-03T22:11:46.063Z,82.89
2023-03-03T22:14:12.619Z,82.89
2023-03-03T22:16:39.442Z,82.68
2023-03-03T22:19:06.315Z,83.06
2023-03-03T22:21:32.753Z,82.46
2023-03-03T22:23:59.219Z,83.12
2023-03-03T22:26:26.253Z,82.43
2023-03-03T22:28:52.859Z,81.91
2023-03-03T22:31:22.523Z,82.02
2023-03-03T22:33:49.760Z,82.34
2023-03-03T22:36:16.472Z,81.28
2023-03-03T22:38:43.008Z,81.70
2023-03-03T22:41:09.533Z,81.80
2023-03-03T22:43:36.079Z,81.44
2023-03-03T22:46:02.625Z,81.30
2023-03-03T22:48:30.061Z,81.32
2023-03-03T22:50:56.513Z,81.36
2023-03-03T22:53:23.730Z,81.13
2023-03-03T22:55:50.676Z,81.02
2023-03-03T22:58:19.735Z,80.87
2023-03-03T23:00:49.381Z,81.01
2023-03-03T23:03:16.602Z,80.96
2023-03-03T23:05:43.295Z,80.91
2023-03-03T23:08:13.197Z,81.39
2023-03-03T23:10:39.980Z,81.17
2023-03-03T23:13:07.243Z,80.47
2023-03-03T23:15:34.882Z,80.19
2023-03-03T23:18:01.803Z,80.65
2023-03-03T23:20:29.658Z,80.75
2023-03-03T23:22:56.148Z,80.77
2023-03-03T23:25:23.849Z,80.37
2023-03-03T23:27:50.732Z,80.51
2023-03-03T23:30:19.398Z,80.77
2023-03-03T23:32:47.087Z,80.49
2023-03-03T23:35:14.194Z,80.71
2023-03-03T23:37:40.764Z,81.30
2023-03-03T23:40:08.234Z,80.98
2023-03-03T23:42:34.780Z,80.47
2023-03-03T23:45:01.465Z,80.45
2023-03-03T23:47:27.985Z,80.67
2023-03-03T23:49:55.133Z,80.68
2023-03-03T23:52:21.929Z,80.20
2023-03-03T23:54:48.410Z,80.22
2023-03-03T23:57:14.908Z,79.93
2023-03-03T23:59:41.361Z,79.71
